Time;durP1;ratioP1;P1;durP2;ratioP2;P2;SDS_P1;SDS_P2;PMS_P1;PMS_P2;Temp;Humidity;BMP_temperature;BMP_pressure;BME280_temperature;BME280_humidity;BME280_pressure;Samples;Min_cycle;Max_cycle;Signal;HPM_P1;HPM_P2
2022/10/04 00:01:17;;;;;;;1.60;0.70;;;;;;;7.67;83.94;97825.18;104581;1274;74168;-24
2022/10/04 00:04:00;;;;;;;1.60;0.90;;;;;;;7.55;85.14;97830.52;104854;1271;64438;-24
2022/10/04 00:06:28;;;;;;;0.70;0.70;;;;;;;7.84;83.80;97829.92;103864;1274;1100434;-24
2022/10/04 00:09:07;;;;;;;0.70;0.60;;;;;;;7.93;83.12;97828.45;104748;1273;76505;-24
2022/10/04 00:11:35;;;;;;;1.80;0.90;;;;;;;7.80;83.52;97830.28;104483;1274;75858;-24
2022/10/04 00:14:08;;;;;;;3.90;1.60;;;;;;;7.53;84.83;97831.65;104665;1275;74058;-24
2022/10/04 00:16:37;;;;;;;1.90;1.10;;;;;;;7.63;84.40;97809.66;104626;1274;62891;-24
2022/10/04 00:19:13;;;;;;;1.50;1.20;;;;;;;7.92;83.40;97820.02;104676;1274;63508;-24
2022/10/04 00:21:53;;;;;;;4.20;0.90;;;;;;;7.75;83.60;97822.65;104765;1274;76422;-24
2022/10/04 00:24:22;;;;;;;1.50;1.10;;;;;;;7.57;84.12;97827.83;104637;1274;77005;-24
2022/10/04 00:26:49;;;;;;;1.50;1.10;;;;;;;7.58;84.80;97838.08;104666;1274;73567;-24
2022/10/04 00:29:30;;;;;;;1.40;0.90;;;;;;;7.84;83.51;97832.35;104700;1274;63019;-24
2022/10/04 00:32:09;;;;;;;1.20;0.90;;;;;;;7.91;82.76;97838.50;104754;1274;62776;-24
2022/10/04 00:34:50;;;;;;;1.10;1.00;;;;;;;7.70;83.69;97839.83;104764;1274;76530;-24
2022/10/04 00:37:20;;;;;;;1.40;0.80;;;;;;;7.49;85.14;97848.03;104724;1274;76983;-24
2022/10/04 00:40:11;;;;;;;1.90;0.90;;;;;;;7.67;84.54;97841.30;104790;1274;75469;-24
2022/10/04 00:42:56;;;;;;;1.90;1.10;;;;;;;7.89;83.40;97845.53;104877;1274;63077;-24
2022/10/04 00:45:36;;;;;;;3.20;1.00;;;;;;;7.71;83.50;97835.58;104964;1274;63019;-24
2022/10/04 00:48:04;;;;;;;2.70;1.20;;;;;;;7.42;85.00;97818.29;104813;1274;75643;-24
2022/10/04 00:50:31;;;;;;;1.40;0.90;;;;;;;7.52;85.51;97856.27;104564;1274;75598;-24
2022/10/04 00:52:59;;;;;;;1.20;0.80;;;;;;;7.79;84.02;97850.61;104747;1274;73539;-24
2022/10/04 00:55:35;;;;;;;1.80;1.50;;;;;;;7.62;84.54;97857.26;104628;1272;62086;-24
2022/10/04 00:58:04;;;;;;;1.10;1.00;;;;;;;7.53;85.22;97857.30;104633;1274;61936;-25
2022/10/04 01:00:32;;;;;;;2.10;1.00;;;;;;;7.51;85.66;97856.13;104701;1274;75647;-25
2022/10/04 01:03:09;;;;;;;1.80;1.00;;;;;;;7.77;84.45;97861.67;104650;1272;75691;-25
2022/10/04 01:05:43;;;;;;;1.10;1.00;;;;;;;7.76;84.17;97863.29;104713;1274;75420;-25
2022/10/04 01:08:16;;;;;;;1.30;0.90;;;;;;;7.66;84.55;97867.95;104634;1274;62909;-25
2022/10/04 01:10:44;;;;;;;1.40;1.00;;;;;;;7.51;85.11;97865.81;104637;1272;61789;-25
2022/10/04 01:13:19;;;;;;;1.80;0.80;;;;;;;7.70;84.28;97862.41;104662;1272;76617;-25
2022/10/04 01:15:59;;;;;;;1.90;1.30;;;;;;;7.80;84.15;97876.06;104611;1274;76753;-25
2022/10/04 01:18:31;;;;;;;4.10;1.20;;;;;;;7.67;84.30;97871.88;104601;1277;75529;-24
2022/10/04 01:21:17;;;;;;;2.80;0.90;;;;;;;7.50;85.15;97880.94;104751;1274;64780;-24
2022/10/04 01:23:45;;;;;;;1.50;1.00;;;;;;;7.73;84.71;97877.86;104849;1274;61717;-25
2022/10/04 01:26:40;;;;;;;1.50;1.00;;;;;;;7.74;84.26;97882.98;104977;1274;76924;-24
2022/10/04 01:29:12;;;;;;;4.10;1.00;;;;;;;7.62;84.67;97885.54;104707;1274;76857;-24
2022/10/04 01:31:59;;;;;;;1.30;0.90;;;;;;;7.48;85.16;97888.36;101691;1310;600380;-24
2022/10/04 01:34:28;;;;;;;1.40;0.90;;;;;;;7.61;84.52;97878.20;103846;1287;62738;-23
2022/10/04 01:36:58;;;;;;;2.20;1.00;;;;;;;7.81;83.98;97894.94;103939;1286;62816;-23
2022/10/04 01:39:25;;;;;;;1.50;1.10;;;;;;;7.66;84.26;97892.14;103962;1284;73942;-23
2022/10/04 01:41:58;;;;;;;2.00;0.90;;;;;;;7.47;85.02;97887.04;104020;1284;76768;-23
2022/10/04 01:44:51;;;;;;;1.40;0.70;;;;;;;7.55;85.30;97895.68;104098;1284;73560;-26
2022/10/04 01:47:25;;;;;;;3.00;0.80;;;;;;;7.85;83.66;97901.38;103321;1281;61255;-25
2022/10/04 01:49:52;;;;;;;1.30;0.90;;;;;;;7.86;83.57;97906.78;104349;1277;62832;-26
2022/10/04 01:52:26;;;;;;;3.30;1.10;;;;;;;7.68;84.23;97906.65;104710;1274;75060;-26
2022/10/04 01:55:00;;;;;;;;;;;;;;;7.49;85.15;97911.95;104491;1275;76951;-27
2022/10/04 01:57:38;;;;;;;2.20;0.80;;;;;;;7.73;84.13;97905.53;104580;1277;75388;-26
2022/10/04 02:00:07;;;;;;;1.60;1.00;;;;;;;7.84;83.48;97915.81;104703;1274;62928;-26
2022/10/04 02:03:00;;;;;;;1.90;1.00;;;;;;;7.71;84.06;97925.89;104757;1274;62060;-26
2022/10/04 02:05:32;;;;;;;3.20;0.60;;;;;;;7.48;84.71;97921.65;104508;1278;74564;-26
2022/10/04 02:08:09;;;;;;;3.20;0.90;;;;;;;7.56;84.93;97925.30;104358;1274;76201;-26
2022/10/04 02:10:38;;;;;;;0.80;0.70;;;;;;;7.89;83.21;97934.56;104277;1274;75204;-26
2022/10/04 02:13:12;;;;;;;1.00;0.70;;;;;;;7.85;82.82;97934.40;104436;1277;61924;-24
2022/10/04 02:15:39;;;;;;;2.20;1.00;;;;;;;7.63;83.48;97935.04;104719;1274;63122;-25
2022/10/04 02:18:11;;;;;;;1.10;0.70;;;;;;;7.47;84.62;97934.77;104559;1277;75748;-25
2022/10/04 02:20:38;;;;;;;1.50;0.90;;;;;;;7.60;84.27;97943.27;104649;1274;77016;-25
2022/10/04 02:23:05;;;;;;;1.70;0.90;;;;;;;7.67;83.47;97940.97;104595;1274;75427;-25
2022/10/04 02:25:34;;;;;;;3.60;1.00;;;;;;;7.69;83.34;97940.44;104558;1277;61187;-25
2022/10/04 02:28:02;;;;;;;2.00;0.90;;;;;;;7.51;83.97;97945.40;104353;1277;63074;-25
2022/10/04 02:30:37;;;;;;;2.10;1.20;;;;;;;7.40;84.39;97949.77;104722;1275;75500;-25
2022/10/04 02:33:04;;;;;;;1.80;1.20;;;;;;;7.60;83.35;97949.85;104560;1278;77111;-25
2022/10/04 02:35:58;;;;;;;1.90;1.00;;;;;;;7.67;82.69;97953.00;104672;1274;75472;-25
2022/10/04 02:38:30;;;;;;;2.70;1.20;;;;;;;7.54;83.09;97949.27;104669;1274;61821;-25
2022/10/04 02:41:03;;;;;;;2.60;1.00;;;;;;;7.36;84.06;97952.92;104527;1277;63030;-25
2022/10/04 02:43:50;;;;;;;1.90;1.10;;;;;;;7.57;84.26;97974.45;104718;1274;75825;-25
2022/10/04 02:46:23;;;;;;;1.10;0.90;;;;;;;7.76;83.09;97979.41;104732;1274;76989;-25
2022/10/04 02:49:01;;;;;;;8.40;1.20;;;;;;;7.59;82.75;97970.29;104681;1274;75381;-25
2022/10/04 02:51:37;;;;;;;2.80;1.00;;;;;;;7.41;83.53;97968.48;104707;1274;61048;-25
2022/10/04 02:54:13;;;;;;;1.30;1.00;;;;;;;7.49;83.65;97978.20;104482;1276;63089;-25
2022/10/04 02:56:40;;;;;;;2.70;1.00;;;;;;;7.82;81.87;97969.52;104493;1277;73503;-26
2022/10/04 02:59:07;;;;;;;3.30;1.20;;;;;;;7.70;82.02;97971.80;104262;1277;75989;-26
2022/10/04 03:01:51;;;;;;;2.50;1.10;;;;;;;7.55;82.64;97981.83;104504;1275;75389;-27
2022/10/04 03:04:22;;;;;;;2.00;0.90;;;;;;;7.36;83.36;97978.84;104620;1277;64701;-26
2022/10/04 03:06:49;;;;;;;1.90;1.20;;;;;;;7.60;82.52;97984.02;104377;1275;62972;-26
2022/10/04 03:09:16;;;;;;;1.20;0.80;;;;;;;7.70;81.47;97980.95;104620;1274;75627;-26
2022/10/04 03:11:45;;;;;;;1.70;1.20;;;;;;;7.66;81.91;97992.32;104695;1274;75482;-25
2022/10/04 03:14:15;;;;;;;1.10;0.90;;;;;;;7.49;82.35;97990.30;104606;1277;75442;-26
2022/10/04 03:16:43;;;;;;;2.00;0.90;;;;;;;7.38;83.13;97990.08;104319;1277;64247;-26
2022/10/04 03:19:11;;;;;;;1.50;1.00;;;;;;;7.63;81.86;97988.63;104647;1275;63089;-26
2022/10/04 03:21:39;;;;;;;4.70;0.80;;;;;;;7.71;81.36;97999.54;104547;1274;74721;-26
2022/10/04 03:24:07;;;;;;;8.60;2.60;;;;;;;7.60;81.69;97995.98;104732;1274;77037;-26
2022/10/04 03:26:40;;;;;;;1.00;0.90;;;;;;;7.35;82.72;97993.23;104466;1277;75468;-27
2022/10/04 03:29:09;;;;;;;4.10;1.10;;;;;;;7.37;83.14;97995.48;104511;1277;62918;-26
2022/10/04 03:31:39;;;;;;;1.40;0.80;;;;;;;7.68;82.15;97994.92;104545;1277;63053;-25
2022/10/04 03:34:13;;;;;;;2.00;1.40;;;;;;;7.65;81.90;97987.60;104673;1277;75944;-26
2022/10/04 03:36:40;;;;;;;1.40;1.10;;;;;;;7.41;83.09;97992.05;104493;1278;77020;-26
2022/10/04 03:39:08;;;;;;;2.30;1.00;;;;;;;7.31;84.09;97997.85;104611;1277;75696;-26
2022/10/04 03:41:38;;;;;;;3.10;1.00;;;;;;;7.57;83.38;98008.64;104550;1277;61980;-25
2022/10/04 03:44:07;;;;;;;2.00;1.20;;;;;;;7.69;82.73;98012.27;104499;1277;61890;-26
2022/10/04 03:46:34;;;;;;;2.90;1.70;;;;;;;7.47;83.63;98021.06;104363;1277;75150;-24
2022/10/04 03:49:01;;;;;;;3.80;1.00;;;;;;;7.34;84.54;98028.23;104316;1277;75807;-25
2022/10/04 03:51:28;;;;;;;4.20;1.30;;;;;;;7.50;83.68;98020.41;104538;1277;75254;-26
2022/10/04 03:53:56;;;;;;;3.90;1.30;;;;;;;7.71;82.75;98031.45;104259;1277;61949;-24
2022/10/04 03:56:28;;;;;;;1.60;1.00;;;;;;;7.69;82.37;98026.79;104331;1277;63133;-24
2022/10/04 03:58:56;;;;;;;2.20;1.40;;;;;;;7.53;83.33;98037.50;104357;1277;75858;-26
2022/10/04 04:01:39;;;;;;;3.20;1.10;;;;;;;7.30;84.32;98042.31;104518;1277;75673;-26
2022/10/04 04:04:24;;;;;;;1.50;1.00;;;;;;;7.61;83.27;98028.20;104551;1277;75374;-26
2022/10/04 04:07:04;;;;;;;1.40;1.10;;;;;;;7.67;82.79;98040.79;104537;1277;62900;-26
2022/10/04 04:09:35;;;;;;;4.90;1.30;;;;;;;7.50;83.01;98032.00;104543;1277;62741;-24
2022/10/04 04:12:05;;;;;;;2.90;0.90;;;;;;;7.34;84.11;98046.48;104686;1277;74723;-26
2022/10/04 04:14:32;;;;;;;3.10;1.00;;;;;;;7.45;83.70;98031.73;104661;1277;75867;-26
2022/10/04 04:17:28;;;;;;;1.70;0.90;;;;;;;7.67;82.39;98034.19;104669;1277;75397;-24
2022/10/04 04:19:57;;;;;;;1.80;0.90;;;;;;;7.60;82.27;98052.06;104543;1277;61753;-25
2022/10/04 04:22:30;;;;;;;2.20;1.10;;;;;;;7.40;83.38;98056.37;104309;1277;63045;-25
2022/10/04 04:25:04;;;;;;;1.50;1.20;;;;;;;7.35;84.01;98067.08;104616;1277;75558;-25
2022/10/04 04:27:33;;;;;;;1.90;1.10;;;;;;;7.67;82.19;98064.29;104599;1277;76390;-25
2022/10/04 04:30:00;;;;;;;2.70;1.20;;;;;;;7.68;82.07;98066.44;104602;1275;74876;-25
2022/10/04 04:32:41;;;;;;;2.20;1.20;;;;;;;7.54;82.60;98074.32;104620;1274;63134;-25
2022/10/04 04:35:31;;;;;;;2.20;1.30;;;;;;;7.31;83.59;98071.56;104494;1274;63100;-25
2022/10/04 04:38:20;;;;;;;4.90;1.30;;;;;;;7.48;83.02;98078.13;104677;1274;75818;-25
2022/10/04 04:40:47;;;;;;;5.90;1.10;;;;;;;7.64;81.92;98075.75;104688;1274;75822;-25
2022/10/04 04:43:21;;;;;;;2.10;1.30;;;;;;;7.62;81.63;98070.90;104573;1277;75486;-25
2022/10/04 04:45:48;;;;;;;3.30;1.20;;;;;;;7.41;82.61;98081.67;104312;1278;63412;-26
2022/10/04 04:48:34;;;;;;;2.60;1.30;;;;;;;7.49;82.71;98088.80;104641;1278;63108;-25
2022/10/04 04:51:01;;;;;;;2.10;1.50;;;;;;;7.77;80.87;98079.02;104636;1274;75823;-25
2022/10/04 04:53:28;;;;;;;1.80;1.10;;;;;;;7.76;80.64;98085.59;104695;1274;74923;-25
2022/10/04 04:55:59;;;;;;;4.00;1.70;;;;;;;7.57;81.60;98094.43;104662;1274;74168;-25
2022/10/04 04:58:34;;;;;;;0.90;0.80;;;;;;;7.43;81.93;98081.98;104573;1276;61814;-25
2022/10/04 05:01:03;;;;;;;1.80;1.10;;;;;;;7.58;81.66;98091.62;104496;1277;62076;-25
2022/10/04 05:03:32;;;;;;;2.20;1.20;;;;;;;7.85;80.46;98096.13;104546;1274;73642;-25
2022/10/04 05:06:01;;;;;;;1.40;1.10;;;;;;;7.81;80.23;98090.95;104709;1274;77016;-25
2022/10/04 05:08:30;;;;;;;2.20;0.90;;;;;;;7.64;80.66;98102.40;104708;1274;75370;-25
2022/10/04 05:10:57;;;;;;;2.30;1.00;;;;;;;7.47;81.63;98105.84;104725;1274;62039;-25
2022/10/04 05:13:29;;;;;;;2.40;1.50;;;;;;;7.55;81.59;98113.67;104696;1274;63292;-25
2022/10/04 05:15:56;;;;;;;1.70;0.90;;;;;;;7.83;80.44;98117.48;104610;1278;74003;-25
2022/10/04 05:18:31;;;;;;;1.80;1.20;;;;;;;7.80;80.34;98114.66;104495;1274;75836;-24
2022/10/04 05:21:07;;;;;;;2.00;1.10;;;;;;;7.70;80.41;98118.44;104702;1274;76177;-24
2022/10/04 05:23:34;;;;;;;3.50;1.10;;;;;;;7.54;81.34;98122.89;104526;1280;62157;-24
2022/10/04 05:26:03;;;;;;;2.70;1.10;;;;;;;7.81;80.84;98128.38;104675;1274;61878;-24
2022/10/04 05:28:30;;;;;;;2.70;1.20;;;;;;;8.00;79.49;98127.49;104770;1274;75939;-24
2022/10/04 05:31:31;;;;;;;1.80;1.30;;;;;;;8.03;79.66;98133.95;104744;1274;77115;-24
2022/10/04 05:33:58;;;;;;;2.90;1.70;;;;;;;7.79;80.36;98132.88;105052;1274;75127;-24
2022/10/04 05:36:46;;;;;;;1.20;0.80;;;;;;;7.59;81.10;98132.31;104690;1274;61540;-24
2022/10/04 05:40:02;;;;;;;1.80;1.20;;;;;;;7.88;80.35;98139.73;104860;1274;63383;-24
2022/10/04 05:42:44;;;;;;;2.60;1.50;;;;;;;8.05;79.15;98141.80;104753;1274;74504;-23
2022/10/04 05:45:18;;;;;;;2.70;1.10;;;;;;;8.02;79.53;98146.31;104777;1271;75966;-23
2022/10/04 05:47:47;;;;;;;3.00;1.50;;;;;;;7.89;80.10;98153.85;104957;1271;74400;-25
2022/10/04 05:50:40;;;;;;;1.60;1.20;;;;;;;7.76;80.43;98152.84;104657;1271;63391;-25
2022/10/04 05:53:16;;;;;;;2.90;1.60;;;;;;;8.19;79.26;98155.13;104846;1272;61774;-25
2022/10/04 05:55:57;;;;;;;1.70;1.20;;;;;;;8.27;78.48;98156.69;104709;1271;76849;-25
2022/10/04 05:58:40;;;;;;;2.80;1.30;;;;;;;8.14;78.38;98158.63;104856;1274;75332;-25
2022/10/04 06:01:29;;;;;;;3.30;1.40;;;;;;;7.99;79.09;98167.66;104806;1272;74472;-25
2022/10/04 06:04:19;;;;;;;2.10;1.30;;;;;;;7.95;79.62;98168.17;104936;1274;64719;-25
2022/10/04 06:07:01;;;;;;;1.40;1.10;;;;;;;8.35;78.04;98171.05;104654;1272;62430;-25
2022/10/04 06:09:42;;;;;;;3.50;1.40;;;;;;;8.41;77.72;98174.71;104597;1272;75520;-26
2022/10/04 06:12:15;;;;;;;2.50;1.40;;;;;;;8.28;78.14;98174.05;104620;1274;76951;-25
2022/10/04 06:14:48;;;;;;;1.90;1.40;;;;;;;8.18;78.27;98179.21;104653;1272;72943;-25
2022/10/04 06:17:38;;;;;;;2.90;1.60;;;;;;;8.00;79.22;98176.10;105087;1271;63685;-25
2022/10/04 06:20:08;;;;;;;2.40;1.40;;;;;;;8.40;78.50;98184.66;104901;1271;61925;-26
2022/10/04 06:22:45;;;;;;;2.20;1.60;;;;;;;8.59;77.01;98184.92;105058;1272;74940;-26
2022/10/04 06:25:25;;;;;;;1.80;1.20;;;;;;;8.54;77.28;98191.23;104886;1271;77033;-23
2022/10/04 06:28:17;;;;;;;2.50;1.60;;;;;;;8.46;78.01;98196.58;105083;1271;74138;-23
2022/10/04 06:30:52;;;;;;;2.00;1.50;;;;;;;8.28;78.88;98200.38;105082;1271;61147;-23
2022/10/04 06:33:37;;;;;;;2.40;1.40;;;;;;;8.56;78.42;98199.52;104907;1271;63276;-25
2022/10/04 06:36:26;;;;;;;1.80;1.60;;;;;;;8.99;76.36;98205.31;105089;1271;76840;-25
2022/10/04 06:39:28;;;;;;;1.70;1.50;;;;;;;8.98;75.99;98205.46;104744;1271;77454;-25
2022/10/04 06:42:26;;;;;;;1.90;1.50;;;;;;;8.79;76.08;98207.38;104435;1271;75575;-23
2022/10/04 06:44:59;;;;;;;2.10;1.60;;;;;;;8.62;77.51;98214.04;105092;1271;63075;-23
2022/10/04 06:47:39;;;;;;;2.90;1.20;;;;;;;8.54;78.05;98222.71;104844;1271;61719;-25
2022/10/04 06:50:17;;;;;;;3.40;1.80;;;;;;;9.07;75.23;98214.52;104767;1274;75321;-25
2022/10/04 06:53:09;;;;;;;3.00;1.60;;;;;;;9.23;74.21;98222.59;104849;1272;77223;-22
2022/10/04 06:55:36;;;;;;;2.40;1.70;;;;;;;9.20;74.91;98234.55;104918;1274;75609;-24
2022/10/04 06:58:22;;;;;;;2.10;1.60;;;;;;;9.02;74.79;98230.85;105004;1271;62743;-25
2022/10/04 07:00:53;;;;;;;1.60;1.30;;;;;;;9.06;75.51;98243.69;105053;1274;62078;-25
2022/10/04 07:03:38;;;;;;;4.80;1.90;;;;;;;8.99;75.07;98240.48;104625;1271;75723;-25
2022/10/04 07:06:06;;;;;;;3.80;2.30;;;;;;;9.19;75.02;98249.59;104773;1271;76947;-25
2022/10/04 07:08:37;;;;;;;2.50;1.80;;;;;;;9.29;73.84;98232.87;105006;1272;75303;-25
2022/10/04 07:11:24;;;;;;;3.40;2.00;;;;;;;9.55;73.72;98248.25;105028;1271;61026;-25
2022/10/04 07:14:04;;;;;;;3.20;1.90;;;;;;;9.45;74.56;98248.04;104737;1271;63212;-25
2022/10/04 07:16:35;;;;;;;2.60;1.70;;;;;;;9.28;75.10;98251.84;104839;1274;76367;-25
2022/10/04 07:19:26;;;;;;;2.40;1.80;;;;;;;9.32;74.68;98242.44;104751;1274;77208;-25
2022/10/04 07:22:04;;;;;;;2.70;1.60;;;;;;;9.45;73.93;98231.43;105073;1272;75137;-25
2022/10/04 07:25:04;;;;;;;2.10;1.70;;;;;;;9.74;73.18;98250.30;104774;1271;63101;-25
2022/10/04 07:27:45;;;;;;;2.10;1.70;;;;;;;9.93;72.09;98237.52;105091;1274;61701;-23
2022/10/04 07:30:17;;;;;;;3.00;2.20;;;;;;;9.74;72.11;98236.95;104583;1272;76553;-24
2022/10/04 07:32:46;;;;;;;2.10;1.80;;;;;;;9.42;72.55;98256.27;104641;1271;77072;-24
2022/10/04 07:35:24;;;;;;;3.40;2.10;;;;;;;9.34;73.63;98249.69;104725;1271;75374;-24
2022/10/04 07:38:10;;;;;;;2.90;1.70;;;;;;;9.26;72.58;98244.37;104723;1271;61714;-25
2022/10/04 07:40:50;;;;;;;2.20;1.70;;;;;;;9.67;73.04;98253.92;104768;1271;61913;-23
2022/10/04 07:43:25;;;;;;;3.20;1.80;;;;;;;9.93;71.13;98249.30;104800;1271;76644;-23
2022/10/04 07:46:01;;;;;;;2.50;1.90;;;;;;;9.96;70.63;98247.30;104685;1271;76887;-23
2022/10/04 07:48:28;;;;;;;2.30;1.70;;;;;;;9.86;69.52;98247.30;104661;1274;75605;-23
2022/10/04 07:51:01;;;;;;;2.60;1.50;;;;;;;9.82;70.88;98258.77;104623;1274;62949;-24
2022/10/04 07:53:30;;;;;;;2.60;1.80;;;;;;;9.64;71.87;98260.70;104633;1272;63012;-23
2022/10/04 07:56:04;;;;;;;2.40;1.50;;;;;;;9.56;71.98;98265.63;104607;1274;74446;-23
2022/10/04 07:58:43;;;;;;;1.80;1.40;;;;;;;9.75;72.90;98276.90;104768;1272;77355;-23
2022/10/04 08:01:37;;;;;;;2.70;1.20;;;;;;;10.13;70.64;98273.14;104617;1274;75307;-23
2022/10/04 08:04:12;;;;;;;2.80;1.90;;;;;;;10.12;70.22;98272.87;104766;1272;62147;-24
2022/10/04 08:06:51;;;;;;;2.30;1.30;;;;;;;10.05;70.13;98277.84;104748;1271;62909;-23
2022/10/04 08:09:27;;;;;;;2.00;1.70;;;;;;;9.94;70.22;98281.59;104710;1271;76527;-23
2022/10/04 08:12:10;;;;;;;2.70;1.60;;;;;;;9.90;71.10;98291.34;104726;1272;76983;-23
2022/10/04 08:14:55;;;;;;;2.70;1.70;;;;;;;9.88;72.29;98293.78;104760;1272;74308;-23
2022/10/04 08:17:36;;;;;;;1.60;1.30;;;;;;;10.00;71.89;98294.05;105015;1272;64616;-24
2022/10/04 08:20:23;;;;;;;2.20;1.30;;;;;;;10.54;69.65;98284.83;104736;1274;61739;-25
2022/10/04 08:23:08;;;;;;;1.60;1.10;;;;;;;10.69;68.06;98282.57;104802;1272;76603;-22
2022/10/04 08:26:03;;;;;;;1.80;1.40;;;;;;;10.74;66.78;98285.81;104721;1275;77820;-23
2022/10/04 08:32:17;;;;;;;3.60;1.50;;;;;;;10.71;68.33;98297.66;104738;1274;62382;-23
2022/10/04 08:34:44;;;;;;;2.30;1.70;;;;;;;10.78;68.78;98294.27;105112;1271;63027;-23
2022/10/04 08:37:27;;;;;;;3.30;1.80;;;;;;;10.61;67.59;98285.92;104879;1274;76657;-24
2022/10/04 08:40:17;;;;;;;2.30;1.90;;;;;;;10.71;68.42;98298.21;104617;1274;75785;-25
2022/10/04 08:42:54;;;;;;;1.60;1.40;;;;;;;10.69;68.95;98306.06;104618;1274;75604;-23
2022/10/04 08:45:46;;;;;;;3.20;1.80;;;;;;;10.54;69.03;98301.88;104658;1271;61485;-24
2022/10/04 08:48:38;;;;;;;1.80;1.30;;;;;;;10.40;70.23;98312.54;104708;1273;61754;-23
2022/10/04 08:51:37;;;;;;;2.00;1.30;;;;;;;10.55;70.02;98306.31;104753;1274;76602;-23
2022/10/04 08:54:39;;;;;;;2.50;1.40;;;;;;;10.86;68.38;98310.85;104704;1272;75178;-23
2022/10/04 08:57:40;;;;;;;2.00;1.60;;;;;;;10.66;68.23;98308.55;104777;1271;75679;-23
2022/10/04 09:00:39;;;;;;;3.90;1.70;;;;;;;10.44;69.67;98326.76;104629;1274;61926;-23
2022/10/04 09:03:12;;;;;;;2.40;1.40;;;;;;;10.21;71.42;98333.70;104961;1271;61553;-23
2022/10/04 09:06:00;;;;;;;1.90;1.50;;;;;;;10.12;71.41;98330.27;104631;1274;75322;-23
2022/10/04 09:08:33;;;;;;;2.50;1.30;;;;;;;10.01;71.94;98342.86;104776;1274;76020;-25
2022/10/04 09:11:25;;;;;;;2.30;1.70;;;;;;;10.18;71.03;98337.86;104759;1274;74461;-23
2022/10/04 09:14:23;;;;;;;2.10;1.30;;;;;;;10.52;69.97;98343.02;104718;1272;63107;-23
2022/10/04 09:17:21;;;;;;;1.70;1.30;;;;;;;10.60;69.58;98347.32;104716;1274;62417;-23
2022/10/04 09:20:30;;;;;;;1.90;1.30;;;;;;;10.39;70.69;98348.38;104766;1273;75232;-23
2022/10/04 09:23:56;;;;;;;3.90;1.50;;;;;;;10.24;71.97;98349.00;104816;1271;76995;-23
2022/10/04 09:26:44;;;;;;;3.50;1.60;;;;;;;10.09;73.04;98354.54;104236;1280;74286;-23
2022/10/04 09:29:31;;;;;;;3.00;1.20;;;;;;;10.10;72.67;98349.35;104472;1280;63783;-23
2022/10/04 09:32:25;;;;;;;6.60;1.40;;;;;;;10.42;71.97;98354.82;104187;1277;62068;-23
2022/10/04 09:35:07;;;;;;;;;;;;;;;10.34;72.28;98350.52;104395;1278;76579;-24
2022/10/04 09:37:56;;;;;;;2.00;1.20;;;;;;;9.97;74.58;98363.00;104326;1277;76897;-24
2022/10/04 09:40:48;;;;;;;2.10;1.30;;;;;;;9.80;75.41;98366.76;104177;1278;74403;-23
2022/10/04 09:43:43;;;;;;;2.40;1.30;;;;;;;9.74;76.08;98376.48;104235;1278;62307;-25
2022/10/04 09:46:46;;;;;;;1.50;1.40;;;;;;;10.01;75.51;98368.02;104486;1278;62988;-24
2022/10/04 09:49:26;;;;;;;2.70;1.80;;;;;;;10.52;74.19;98375.98;103959;1282;76589;-24
2022/10/04 09:52:00;;;;;;;1.70;1.40;;;;;;;10.63;73.38;98374.43;104299;1278;75948;-23
2022/10/04 09:54:55;;;;;;;2.20;1.80;;;;;;;10.61;73.57;98380.25;104244;1278;75527;-24
2022/10/04 09:57:28;;;;;;;1.80;1.50;;;;;;;10.39;73.89;98379.56;104481;1274;61999;-24
2022/10/04 10:00:41;;;;;;;1.90;1.10;;;;;;;10.12;73.65;98380.95;104655;1272;63314;-24
2022/10/04 10:03:20;;;;;;;4.80;1.80;;;;;;;10.51;73.37;98383.73;104301;1274;76621;-24
2022/10/04 10:05:53;;;;;;;1.50;1.20;;;;;;;10.72;73.31;98394.47;104767;1274;76961;-23
2022/10/04 10:08:42;;;;;;;3.70;2.00;;;;;;;10.71;73.39;98390.16;104777;1272;74047;-24
2022/10/04 10:14:09;;;;;;;4.50;1.80;;;;;;;10.44;73.75;98391.13;104596;1272;63093;-23
2022/10/04 10:16:59;;;;;;;1.80;1.30;;;;;;;10.44;74.40;98389.04;104751;1272;76643;-23
2022/10/04 10:20:05;;;;;;;2.30;1.60;;;;;;;10.93;73.02;98398.42;104613;1274;76967;-24
2022/10/04 10:22:41;;;;;;;3.50;1.80;;;;;;;11.09;71.57;98396.73;104032;1281;75477;-23
2022/10/04 10:25:33;;;;;;;2.60;1.70;;;;;;;10.95;71.42;98391.27;104195;1281;61087;-24
2022/10/04 10:28:28;;;;;;;2.40;1.80;;;;;;;10.85;72.51;98403.47;104407;1274;63299;-23
2022/10/04 10:31:07;;;;;;;2.30;1.90;;;;;;;10.68;72.31;98400.23;104694;1274;76611;-24
2022/10/04 10:34:12;;;;;;;2.40;1.80;;;;;;;10.49;71.95;98394.64;104679;1274;77051;-24
2022/10/04 10:36:57;;;;;;;1.90;1.50;;;;;;;10.54;71.28;98386.19;104695;1272;74511;-24
2022/10/04 10:39:49;;;;;;;2.20;1.90;;;;;;;10.94;70.87;98410.73;104730;1271;61888;-25
2022/10/04 10:42:30;;;;;;;2.10;1.50;;;;;;;10.96;70.86;98404.79;104752;1271;63070;-25
2022/10/04 10:45:37;;;;;;;3.10;1.90;;;;;;;10.81;70.51;98398.13;104641;1271;75616;-24
2022/10/04 10:48:12;;;;;;;3.30;1.70;;;;;;;10.57;72.04;98409.86;104702;1274;77138;-24
2022/10/04 10:51:09;;;;;;;2.90;1.70;;;;;;;10.41;71.81;98391.70;104763;1272;75129;-24
2022/10/04 10:53:46;;;;;;;3.60;1.50;;;;;;;10.36;71.98;98407.09;104733;1271;64705;-24
2022/10/04 10:56:33;;;;;;;2.50;1.50;;;;;;;10.78;70.53;98405.66;104798;1271;62318;-24
2022/10/04 10:59:35;;;;;;;3.60;1.20;;;;;;;11.05;69.43;98405.45;104735;1272;76765;-24
2022/10/04 11:02:35;;;;;;;1.90;1.50;;;;;;;11.10;69.66;98408.52;104686;1274;75910;-24
2022/10/04 11:06:10;;;;;;;4.80;1.90;;;;;;;11.01;69.06;98389.00;104698;1272;75522;-24
2022/10/04 11:08:47;;;;;;;1.60;1.50;;;;;;;10.92;69.28;98397.72;104595;1278;63287;-24
2022/10/04 11:11:50;;;;;;;2.70;2.00;;;;;;;10.89;70.87;98419.30;104343;1278;63090;-25
2022/10/04 11:14:20;;;;;;;1.70;1.20;;;;;;;10.80;70.04;98400.17;104705;1271;76559;-24
2022/10/04 11:17:19;;;;;;;3.70;2.30;;;;;;;11.25;68.58;98400.85;104731;1274;77288;-24
2022/10/04 11:20:05;;;;;;;3.70;1.60;;;;;;;11.42;67.70;98407.54;104599;1274;74097;-24
2022/10/04 11:22:50;;;;;;;1.80;1.60;;;;;;;11.15;68.42;98405.73;104727;1271;62004;-24
2022/10/04 11:25:35;;;;;;;3.90;1.60;;;;;;;11.11;68.83;98416.39;104727;1272;62956;-24
2022/10/04 11:28:12;;;;;;;2.40;1.60;;;;;;;11.04;69.38;98422.10;104790;1274;76817;-24
2022/10/04 11:31:00;;;;;;;2.50;1.70;;;;;;;11.03;69.63;98420.59;104621;1274;77253;-24
2022/10/04 11:34:04;;;;;;;2.70;1.80;;;;;;;11.03;69.12;98424.31;104927;1274;75400;-24
2022/10/04 11:36:50;;;;;;;1.30;1.20;;;;;;;10.94;68.74;98425.95;104887;1274;64643;-24
2022/10/04 11:39:36;;;;;;;2.30;1.50;;;;;;;11.38;67.76;98427.41;104747;1274;63081;-24
2022/10/04 11:42:17;;;;;;;2.80;1.50;;;;;;;11.54;67.39;98437.77;104838;1274;75599;-24
2022/10/04 11:45:00;;;;;;;5.10;1.90;;;;;;;11.34;68.13;98439.58;104685;1275;77029;-24
2022/10/04 11:47:55;;;;;;;3.40;2.00;;;;;;;11.17;68.60;98440.28;104717;1272;74144;-24
2022/10/04 11:50:34;;;;;;;4.30;1.80;;;;;;;11.01;69.19;98441.48;104638;1274;63147;-24
2022/10/04 11:53:14;;;;;;;2.00;1.70;;;;;;;10.92;69.73;98445.78;104625;1274;62764;-24
2022/10/04 11:55:52;;;;;;;3.40;1.60;;;;;;;10.74;70.68;98443.04;104446;1275;76577;-24
2022/10/04 11:58:44;;;;;;;2.70;1.30;;;;;;;10.75;72.44;98462.95;104563;1274;77059;-24
2022/10/04 12:01:49;;;;;;;1.30;1.20;;;;;;;10.98;73.12;98463.46;104631;1274;75843;-25
2022/10/04 12:04:30;;;;;;;2.10;1.40;;;;;;;10.60;74.89;98461.11;104832;1274;62909;-23
2022/10/04 12:07:33;;;;;;;2.40;1.70;;;;;;;10.40;76.07;98471.28;104626;1274;61098;-23
2022/10/04 12:10:19;;;;;;;2.30;1.30;;;;;;;10.18;78.17;98481.18;104584;1276;76535;-23
2022/10/04 12:12:55;;;;;;;3.90;1.60;;;;;;;10.12;79.01;98480.13;104631;1274;76029;-23
2022/10/04 12:15:37;;;;;;;2.20;1.60;;;;;;;10.56;78.17;98481.46;104580;1274;74112;-23
2022/10/04 12:18:07;;;;;;;2.80;2.10;;;;;;;10.67;77.76;98481.35;104577;1274;61911;-23
2022/10/04 12:20:38;;;;;;;2.00;1.60;;;;;;;10.51;78.50;98478.27;104657;1274;62312;-24
2022/10/04 12:23:29;;;;;;;2.30;1.80;;;;;;;10.46;78.80;98485.67;104644;1274;76542;-24
2022/10/04 12:26:16;;;;;;;2.90;2.20;;;;;;;10.46;79.47;98477.01;104683;1274;76963;-24
2022/10/04 12:29:03;;;;;;;3.00;1.80;;;;;;;10.81;77.31;98482.55;104947;1274;74283;-24
2022/10/04 12:31:31;;;;;;;2.10;1.70;;;;;;;10.96;77.16;98489.21;104654;1274;63135;-25
2022/10/04 12:34:30;;;;;;;2.40;1.70;;;;;;;10.91;77.51;98492.76;104609;1274;62890;-25
2022/10/04 12:37:03;;;;;;;2.90;2.00;;;;;;;10.79;77.46;98501.11;104655;1274;76416;-29